createdAt,value
2023-02-01T00:02:16.330Z,8.60
2023-02-01T00:04:43.202Z,8.50
2023-02-01T00:07:10.772Z,8.40
2023-02-01T00:09:38.463Z,8.50
2023-02-01T00:12:05.486Z,8.30
2023-02-01T00:14:40.029Z,8.40
2023-02-01T00:17:08.365Z,8.50
2023-02-01T00:19:35.833Z,8.50
2023-02-01T00:22:02.731Z,8.30
2023-02-01T00:24:29.715Z,8.30
2023-02-01T00:26:56.863Z,8.40
2023-02-01T00:29:23.965Z,8.40
2023-02-01T00:31:52.530Z,8.30
2023-02-01T00:34:20.300Z,8.30
2023-02-01T00:36:47.329Z,8.10
2023-02-01T00:39:14.716Z,8.30
2023-02-01T00:41:41.769Z,8.10
2023-02-01T00:44:08.626Z,8.00
2023-02-01T00:46:35.532Z,8.20
2023-02-01T00:49:02.408Z,8.20
2023-02-01T00:51:30.385Z,8.10
2023-02-01T00:53:57.986Z,8.20
2023-02-01T00:56:24.835Z,8.10
2023-02-01T00:58:51.672Z,8.00
2023-02-01T01:01:22.555Z,8.10
2023-02-01T01:03:57.990Z,8.00
2023-02-01T01:06:28.863Z,8.00
2023-02-01T01:08:57.358Z,8.10
2023-02-01T01:11:27.756Z,8.10
2023-02-01T01:13:56.110Z,7.90
2023-02-01T01:16:24.611Z,7.80
2023-02-01T01:18:51.689Z,7.90
2023-02-01T01:21:19.047Z,8.00
2023-02-01T01:23:47.306Z,8.00
2023-02-01T01:26:17.415Z,7.90
2023-02-01T01:28:44.778Z,7.90
2023-02-01T01:31:13.469Z,7.90
2023-02-01T01:33:40.765Z,7.80
2023-02-01T01:36:11.089Z,7.80
2023-02-01T01:38:38.858Z,7.90
2023-02-01T01:41:05.839Z,7.80
2023-02-01T01:43:48.919Z,8.00
2023-02-01T01:46:28.008Z,7.90
2023-02-01T01:49:22.920Z,7.80
2023-02-01T01:51:55.863Z,7.80
2023-02-01T01:54:37.862Z,7.60
2023-02-01T01:57:17.811Z,7.70
2023-02-01T01:59:50.459Z,7.70
2023-02-01T02:02:18.064Z,7.50
2023-02-01T02:04:45.416Z,7.70
2023-02-01T02:07:21.070Z,7.60
2023-02-01T02:09:59.460Z,7.50
2023-02-01T02:12:27.534Z,7.60
2023-02-01T02:14:54.648Z,7.60
2023-02-01T02:17:45.460Z,7.40
2023-02-01T02:20:30.836Z,7.60
2023-02-01T02:23:16.265Z,7.50
2023-02-01T02:25:55.053Z,7.50
2023-02-01T02:29:13.046Z,7.40
2023-02-01T02:32:24.223Z,7.30
2023-02-01T02:35:02.262Z,7.30
2023-02-01T02:37:41.897Z,7.10
2023-02-01T02:40:34.851Z,7.10
2023-02-01T02:43:31.969Z,7.20
2023-02-01T02:46:38.452Z,7.20
2023-02-01T02:49:21.900Z,7.20
2023-02-01T02:52:16.145Z,7.10
2023-02-01T02:54:48.234Z,7.10
2023-02-01T02:58:01.443Z,7.10
2023-02-01T03:00:53.451Z,7.20
2023-02-01T03:03:38.591Z,7.00
2023-02-01T03:06:10.064Z,6.90
2023-02-01T03:08:36.827Z,7.10
2023-02-01T03:11:05.287Z,7.00
2023-02-01T03:13:41.377Z,7.10
2023-02-01T03:16:14.710Z,7.20
2023-02-01T03:19:00.834Z,7.10
2023-02-01T03:21:40.565Z,7.00
2023-02-01T03:24:18.275Z,7.20
2023-02-01T03:26:54.792Z,7.00
2023-02-01T03:29:30.693Z,7.20
2023-02-01T03:31:57.651Z,7.20
2023-02-01T03:34:24.544Z,7.30
2023-02-01T03:37:11.126Z,7.30
2023-02-01T03:39:46.515Z,7.10
2023-02-01T03:42:22.511Z,7.50
2023-02-01T03:45:27.341Z,7.50
2023-02-01T03:47:58.103Z,7.50
2023-02-01T03:50:26.464Z,7.50
2023-02-01T03:53:24.184Z,7.50
2023-02-01T03:55:53.854Z,7.50
2023-02-01T03:58:23.173Z,7.30
2023-02-01T04:00:56.098Z,7.40
2023-02-01T04:03:23.989Z,7.40
2023-02-01T04:05:52.119Z,7.40
2023-02-01T04:08:20.765Z,7.40
2023-02-01T04:10:47.838Z,7.20
2023-02-01T04:13:14.850Z,7.30
2023-02-01T04:15:41.851Z,7.10
2023-02-01T04:18:08.658Z,7.20
2023-02-01T04:20:35.483Z,7.00
2023-02-01T04:23:03.566Z,7.10
2023-02-01T04:25:31.242Z,7.20
2023-02-01T04:27:58.066Z,7.00
2023-02-01T04:30:25.299Z,7.30
2023-02-01T04:32:52.295Z,7.30
2023-02-01T04:35:19.209Z,7.40
2023-02-01T04:37:46.111Z,7.40
2023-02-01T04:40:13.351Z,7.50
2023-02-01T04:42:40.154Z,7.30
2023-02-01T04:45:07.808Z,7.50
2023-02-01T04:47:34.846Z,7.50
2023-02-01T04:50:01.832Z,7.60
2023-02-01T04:52:28.658Z,7.60
2023-02-01T04:54:59.312Z,7.60
2023-02-01T04:57:26.983Z,7.60
2023-02-01T04:59:53.886Z,7.90
2023-02-01T05:02:20.725Z,7.70
2023-02-01T05:04:47.548Z,7.70
2023-02-01T05:07:14.443Z,7.80
2023-02-01T05:09:41.239Z,7.80
2023-02-01T05:12:27.851Z,7.90
2023-02-01T05:14:54.625Z,7.80
2023-02-01T05:17:21.384Z,7.90
2023-02-01T05:19:48.285Z,7.80
2023-02-01T05:22:15.038Z,8.00
2023-02-01T05:24:41.797Z,8.00
2023-02-01T05:27:08.640Z,7.90
2023-02-01T05:29:35.375Z,7.90
2023-02-01T05:32:19.475Z,7.80
2023-02-01T05:34:48.347Z,7.80
2023-02-01T05:37:15.188Z,7.90
2023-02-01T05:39:42.076Z,8.10
2023-02-01T05:42:08.875Z,7.80
2023-02-01T05:44:35.645Z,7.80
2023-02-01T05:47:02.443Z,7.90
2023-02-01T05:49:29.389Z,7.80
2023-02-01T05:51:56.776Z,7.60
2023-02-01T05:54:24.767Z,7.80
2023-02-01T05:56:51.623Z,7.50
2023-02-01T05:59:18.617Z,7.50
2023-02-01T06:01:45.558Z,7.50
2023-02-01T06:04:12.381Z,7.50
2023-02-01T06:06:39.304Z,7.40
2023-02-01T06:09:06.129Z,7.50
2023-02-01T06:11:33.436Z,7.70
2023-02-01T06:14:00.938Z,7.70
2023-02-01T06:16:28.090Z,7.70
2023-02-01T06:18:55.151Z,7.70
2023-02-01T06:21:25.228Z,7.80
2023-02-01T06:23:54.423Z,7.90
2023-02-01T06:26:21.854Z,7.90
2023-02-01T06:28:48.738Z,7.80
2023-02-01T06:31:15.663Z,8.00
2023-02-01T06:33:42.578Z,7.90
2023-02-01T06:36:13.467Z,7.90
2023-02-01T06:38:40.662Z,7.90
2023-02-01T06:41:07.886Z,8.00
2023-02-01T06:43:34.940Z,7.90
2023-02-01T06:46:03.830Z,7.80
2023-02-01T06:48:31.097Z,7.90
2023-02-01T06:50:58.251Z,7.90
2023-02-01T06:53:25.157Z,7.70
2023-02-01T06:55:59.002Z,7.90
2023-02-01T06:58:29.273Z,7.90
2023-02-01T07:00:56.211Z,8.00
2023-02-01T07:03:24.609Z,7.90
2023-02-01T07:05:51.422Z,8.00
2023-02-01T07:08:18.350Z,8.10
2023-02-01T07:10:45.180Z,8.00
2023-02-01T07:13:12.039Z,8.20
2023-02-01T07:15:38.865Z,8.10
2023-02-01T07:18:05.788Z,8.20
2023-02-01T07:20:32.586Z,8.10
2023-02-01T07:22:59.449Z,8.20
2023-02-01T07:25:26.355Z,8.40
2023-02-01T07:27:53.181Z,8.20
2023-02-01T07:30:20.066Z,8.30
2023-02-01T07:32:46.943Z,8.30
2023-02-01T07:35:15.164Z,8.30
2023-02-01T07:37:42.117Z,8.40
2023-02-01T07:40:10.001Z,8.40
2023-02-01T07:42:36.822Z,8.40
2023-02-01T07:45:19.928Z,8.50
2023-02-01T07:47:48.045Z,8.50
2023-02-01T07:50:15.166Z,8.50
2023-02-01T07:52:42.027Z,8.50
2023-02-01T07:55:09.414Z,8.70
2023-02-01T07:57:36.449Z,8.70
2023-02-01T08:00:23.542Z,8.80
2023-02-01T08:02:50.635Z,8.90
2023-02-01T08:05:17.480Z,8.90
2023-02-01T08:07:44.299Z,9.00
2023-02-01T08:10:12.564Z,9.10
2023-02-01T08:12:42.231Z,9.00
2023-02-01T08:15:09.330Z,9.20
2023-02-01T08:17:36.198Z,9.20
2023-02-01T08:20:03.186Z,9.20
2023-02-01T08:22:33.511Z,9.40
2023-02-01T08:25:02.445Z,9.30
2023-02-01T08:27:29.763Z,9.50
2023-02-01T08:29:56.636Z,9.50
2023-02-01T08:32:23.507Z,9.60
2023-02-01T08:34:50.353Z,9.60
2023-02-01T08:37:17.208Z,9.60
2023-02-01T08:39:48.053Z,9.80
2023-02-01T08:42:33.340Z,9.80
2023-02-01T08:45:00.345Z,9.90
2023-02-01T08:47:27.268Z,10.10
2023-02-01T08:49:54.634Z,10.20
2023-02-01T08:52:21.710Z,10.20
2023-02-01T08:54:48.675Z,10.30
2023-02-01T08:57:15.715Z,10.30
2023-02-01T08:59:44.515Z,10.40
2023-02-01T09:02:16.072Z,10.30
2023-02-01T09:04:43.480Z,10.40
2023-02-01T09:07:11.192Z,10.40
2023-02-01T09:09:39.516Z,10.40
2023-02-01T09:12:06.783Z,10.40
2023-02-01T09:14:33.735Z,10.40
2023-02-01T09:17:00.679Z,10.40
2023-02-01T09:19:27.661Z,10.50
2023-02-01T09:21:54.784Z,10.60
2023-02-01T09:24:21.633Z,10.60
2023-02-01T09:26:48.812Z,10.60
2023-02-01T09:29:16.178Z,10.60
2023-02-01T09:31:49.770Z,10.70
2023-02-01T09:34:24.567Z,10.70
2023-02-01T09:36:51.447Z,10.90
2023-02-01T09:39:18.402Z,11.00
2023-02-01T09:42:00.272Z,11.10
2023-02-01T09:44:42.504Z,11.20
2023-02-01T09:47:16.204Z,11.10
2023-02-01T09:50:04.644Z,11.20
2023-02-01T09:52:46.894Z,11.30
2023-02-01T09:55:40.997Z,11.30
2023-02-01T09:58:45.597Z,11.40
2023-02-01T10:01:25.746Z,11.50
2023-02-01T10:04:06.508Z,11.50
2023-02-01T10:06:51.611Z,11.50
2023-02-01T10:09:41.750Z,11.60
2023-02-01T10:12:36.450Z,11.50
2023-02-01T10:15:20.115Z,11.60
2023-02-01T10:17:57.967Z,11.50
2023-02-01T10:20:31.416Z,11.50
2023-02-01T10:23:32.886Z,11.60
2023-02-01T10:26:15.355Z,11.60
2023-02-01T10:28:45.327Z,11.50
2023-02-01T10:31:12.399Z,11.50
2023-02-01T10:33:52.348Z,11.50
2023-02-01T10:36:42.072Z,11.50
2023-02-01T10:39:14.639Z,11.70
2023-02-01T10:41:44.084Z,11.70
2023-02-01T10:44:21.133Z,11.70
2023-02-01T10:46:48.096Z,11.90
2023-02-01T10:49:39.652Z,11.90
2023-02-01T10:52:17.626Z,12.00
2023-02-01T10:54:44.799Z,12.00
2023-02-01T10:57:26.776Z,12.10
2023-02-01T10:59:54.548Z,12.10
2023-02-01T11:02:28.922Z,12.10
2023-02-01T11:05:10.385Z,12.00
2023-02-01T11:07:38.481Z,12.00
2023-02-01T11:10:06.420Z,12.10
2023-02-01T11:12:35.917Z,12.10
2023-02-01T11:15:19.823Z,12.20
2023-02-01T11:17:49.230Z,12.30
2023-02-01T11:20:17.928Z,12.50
2023-02-01T11:22:57.043Z,12.30
2023-02-01T11:25:25.589Z,12.40
2023-02-01T11:27:56.047Z,12.50
2023-02-01T11:30:41.607Z,12.50
2023-02-01T11:33:16.970Z,12.50
2023-02-01T11:35:45.106Z,12.60
2023-02-01T11:38:19.488Z,12.70
2023-02-01T11:40:46.471Z,12.60
2023-02-01T11:43:30.076Z,12.80
2023-02-01T11:46:01.957Z,12.80
2023-02-01T11:48:34.073Z,12.80
2023-02-01T11:51:39.759Z,12.80
2023-02-01T11:54:35.897Z,12.90
2023-02-01T11:57:04.100Z,13.00
2023-02-01T12:00:26.360Z,13.10
2023-02-01T12:03:13.329Z,13.20
2023-02-01T12:05:52.248Z,13.30
2023-02-01T12:08:27.284Z,13.30
2023-02-01T12:10:54.092Z,13.30
2023-02-01T12:13:34.958Z,13.40
2023-02-01T12:16:14.695Z,13.50
2023-02-01T12:18:50.344Z,13.60
2023-02-01T12:21:44.349Z,13.70
2023-02-01T12:24:42.021Z,13.70
2023-02-01T12:27:20.874Z,13.80
2023-02-01T12:30:05.407Z,13.80
2023-02-01T12:33:09.696Z,13.90
2023-02-01T12:35:39.515Z,13.90
2023-02-01T12:38:27.153Z,13.90
2023-02-01T12:41:12.926Z,13.90
2023-02-01T12:43:55.112Z,13.90
2023-02-01T12:46:34.507Z,13.90
2023-02-01T12:49:27.470Z,13.90
2023-02-01T12:52:07.917Z,14.00
2023-02-01T12:54:47.732Z,14.00
2023-02-01T12:57:22.114Z,14.00
2023-02-01T13:00:02.166Z,14.00
2023-02-01T13:02:43.321Z,14.00
2023-02-01T13:05:20.672Z,14.00
2023-02-01T13:08:00.267Z,14.00
2023-02-01T13:10:38.520Z,14.10
2023-02-01T13:13:12.313Z,14.20
2023-02-01T13:15:56.248Z,14.10
2023-02-01T13:18:27.515Z,14.20
2023-02-01T13:21:08.009Z,14.10
2023-02-01T13:23:38.656Z,14.20
2023-02-01T13:26:05.553Z,14.10
2023-02-01T13:28:43.825Z,14.20
2023-02-01T13:31:25.857Z,14.30
2023-02-01T13:34:05.102Z,14.50
2023-02-01T13:36:49.753Z,14.70
2023-02-01T13:39:22.699Z,14.90
2023-02-01T13:42:14.769Z,15.00
2023-02-01T13:45:05.313Z,15.10
2023-02-01T13:47:41.974Z,15.00
2023-02-01T13:50:21.993Z,15.00
2023-02-01T13:53:01.625Z,14.90
2023-02-01T13:55:37.402Z,14.80
2023-02-01T13:58:14.650Z,14.90
2023-02-01T14:00:45.029Z,14.80
2023-02-01T14:03:20.047Z,14.80
2023-02-01T14:05:47.960Z,14.90
2023-02-01T14:08:23.816Z,14.90
2023-02-01T14:10:53.451Z,15.00
2023-02-01T14:13:35.217Z,15.00
2023-02-01T14:16:05.242Z,15.20
2023-02-01T14:18:34.975Z,15.30
2023-02-01T14:21:23.721Z,15.20
2023-02-01T14:23:58.975Z,15.30
2023-02-01T14:26:34.789Z,15.40
2023-02-01T14:29:03.576Z,15.40
2023-02-01T14:31:40.481Z,15.50
2023-02-01T14:34:17.669Z,15.40
2023-02-01T14:36:57.152Z,15.30
2023-02-01T14:39:32.224Z,15.20
2023-02-01T14:42:04.476Z,15.20
2023-02-01T14:44:34.958Z,15.20
2023-02-01T14:47:07.283Z,15.30
2023-02-01T14:49:38.994Z,15.40
2023-02-01T14:52:11.131Z,15.30
2023-02-01T14:54:40.737Z,15.30
2023-02-01T14:57:19.493Z,15.30
2023-02-01T14:59:47.359Z,15.40
2023-02-01T15:02:27.672Z,15.40
2023-02-01T15:04:57.165Z,15.40
2023-02-01T15:07:27.399Z,15.30
2023-02-01T15:09:57.581Z,15.30
2023-02-01T15:12:28.623Z,15.30
2023-02-01T15:15:16.036Z,15.20
2023-02-01T15:17:43.319Z,15.20
2023-02-01T15:20:17.199Z,15.20
2023-02-01T15:23:21.407Z,15.10
2023-02-01T15:25:48.547Z,15.10
2023-02-01T15:28:17.294Z,15.00
2023-02-01T15:30:54.467Z,15.00
2023-02-01T15:33:21.723Z,14.90
2023-02-01T15:35:54.061Z,14.90
2023-02-01T15:38:42.449Z,14.90
2023-02-01T15:41:18.267Z,14.80
2023-02-01T15:44:06.828Z,14.70
2023-02-01T15:46:40.161Z,14.70
2023-02-01T15:49:24.816Z,14.60
2023-02-01T15:51:52.291Z,14.50
2023-02-01T15:54:36.696Z,14.50
2023-02-01T15:57:06.381Z,14.50
2023-02-01T15:59:45.433Z,14.30
2023-02-01T16:02:29.175Z,14.30
2023-02-01T16:04:56.486Z,14.20
2023-02-01T16:07:31.863Z,14.20
2023-02-01T16:10:07.239Z,14.10
2023-02-01T16:12:42.156Z,14.00
2023-02-01T16:15:09.177Z,13.90
2023-02-01T16:17:35.949Z,13.90
2023-02-01T16:20:02.820Z,13.70
2023-02-01T16:22:29.553Z,13.70
2023-02-01T16:24:56.322Z,13.60
2023-02-01T16:27:23.368Z,13.50
2023-02-01T16:29:50.952Z,13.50
2023-02-01T16:32:20.388Z,13.40
2023-02-01T16:34:48.346Z,13.40
2023-02-01T16:37:21.589Z,13.40
2023-02-01T16:39:48.431Z,13.30
2023-02-01T16:42:16.821Z,13.30
2023-02-01T16:44:44.107Z,13.20
2023-02-01T16:47:23.623Z,13.10
2023-02-01T16:49:50.815Z,13.00
2023-02-01T16:52:21.791Z,12.90
2023-02-01T16:54:48.690Z,12.90
2023-02-01T16:57:17.799Z,12.90
2023-02-01T16:59:47.656Z,12.70
2023-02-01T17:02:17.105Z,12.70
2023-02-01T17:04:44.337Z,12.70
2023-02-01T17:07:20.244Z,12.70
2023-02-01T17:09:48.082Z,12.60
2023-02-01T17:12:29.402Z,12.40
2023-02-01T17:14:57.329Z,12.40
2023-02-01T17:17:37.761Z,12.20
2023-02-01T17:20:06.975Z,12.20
2023-02-01T17:22:34.466Z,12.20
2023-02-01T17:25:01.284Z,12.00
2023-02-01T17:27:30.289Z,12.00
2023-02-01T17:29:57.253Z,11.90
2023-02-01T17:32:25.923Z,11.80
2023-02-01T17:34:52.919Z,11.80
2023-02-01T17:37:32.658Z,11.80
2023-02-01T17:39:59.843Z,11.70
2023-02-01T17:42:29.044Z,11.70
2023-02-01T17:45:19.387Z,11.60
2023-02-01T17:47:48.129Z,11.60
2023-02-01T17:50:15.167Z,11.50
2023-02-01T17:52:42.165Z,11.40
2023-02-01T17:55:29.587Z,11.40
2023-02-01T17:57:56.363Z,11.40
2023-02-01T18:00:23.264Z,11.30
2023-02-01T18:02:50.173Z,11.20
2023-02-01T18:05:39.250Z,11.30
2023-02-01T18:08:06.773Z,11.30
2023-02-01T18:10:34.065Z,11.10
2023-02-01T18:13:02.813Z,11.10
2023-02-01T18:15:30.643Z,11.10
2023-02-01T18:17:57.856Z,11.10
2023-02-01T18:20:27.060Z,11.10
2023-02-01T18:22:53.951Z,11.00
2023-02-01T18:25:28.050Z,11.00
2023-02-01T18:27:55.596Z,11.10
2023-02-01T18:30:27.052Z,11.00
2023-02-01T18:32:53.995Z,10.80
2023-02-01T18:35:26.532Z,10.80
2023-02-01T18:37:56.263Z,10.80
2023-02-01T18:40:32.802Z,10.80
2023-02-01T18:43:00.560Z,10.80
2023-02-01T18:45:57.114Z,10.80
2023-02-01T18:48:24.058Z,10.80
2023-02-01T18:50:57.588Z,10.80
2023-02-01T18:53:27.673Z,10.70
2023-02-01T18:55:56.311Z,10.70
2023-02-01T18:58:26.612Z,10.70
2023-02-01T19:00:55.297Z,10.70
2023-02-01T19:03:26.185Z,10.60
2023-02-01T19:05:55.829Z,10.60
2023-02-01T19:08:24.505Z,10.60
2023-02-01T19:10:51.759Z,10.50
2023-02-01T19:13:20.909Z,10.60
2023-02-01T19:15:47.840Z,10.60
2023-02-01T19:18:20.023Z,10.50
2023-02-01T19:20:50.760Z,10.50
2023-02-01T19:23:21.396Z,10.60
2023-02-01T19:25:49.595Z,10.60
2023-02-01T19:28:16.736Z,10.60
2023-02-01T19:30:44.948Z,10.60
2023-02-01T19:33:12.114Z,10.60
2023-02-01T19:35:39.234Z,10.60
2023-02-01T19:38:06.417Z,10.50
2023-02-01T19:40:33.702Z,10.50
2023-02-01T19:43:00.547Z,10.50
2023-02-01T19:45:27.476Z,10.50
2023-02-01T19:47:54.633Z,10.50
2023-02-01T19:50:22.638Z,10.60
2023-02-01T19:52:49.647Z,10.60
2023-02-01T19:55:16.858Z,10.60
2023-02-01T19:57:43.944Z,10.50
2023-02-01T20:00:17.637Z,10.50
2023-02-01T20:02:44.510Z,10.60
2023-02-01T20:05:11.893Z,10.50
2023-02-01T20:07:39.126Z,10.50
2023-02-01T20:10:06.845Z,10.60
2023-02-01T20:12:34.032Z,10.60
2023-02-01T20:15:01.422Z,10.60
2023-02-01T20:17:29.207Z,10.60
2023-02-01T20:19:56.459Z,10.60
2023-02-01T20:22:23.322Z,10.60
2023-02-01T20:24:50.190Z,10.60
2023-02-01T20:27:17.923Z,10.70
2023-02-01T20:29:44.961Z,10.70
2023-02-01T20:32:11.852Z,10.70
2023-02-01T20:34:38.741Z,10.70
2023-02-01T20:37:05.603Z,10.70
2023-02-01T20:39:32.630Z,10.80
2023-02-01T20:41:59.458Z,10.70
2023-02-01T20:44:26.387Z,10.70
2023-02-01T20:46:53.399Z,10.70
2023-02-01T20:49:20.379Z,10.70
2023-02-01T20:51:47.306Z,10.70
2023-02-01T20:54:14.084Z,10.70
2023-02-01T20:56:40.886Z,10.70
2023-02-01T20:59:12.208Z,10.80
2023-02-01T21:01:51.146Z,10.70
2023-02-01T21:04:22.746Z,10.70
2023-02-01T21:06:49.969Z,10.80
2023-02-01T21:09:17.254Z,10.80
2023-02-01T21:11:44.293Z,10.80
2023-02-01T21:14:11.633Z,10.70
2023-02-01T21:16:39.550Z,10.80
2023-02-01T21:19:06.831Z,10.80
2023-02-01T21:21:33.828Z,10.80
2023-02-01T21:24:03.552Z,10.80
2023-02-01T21:26:42.592Z,10.80
2023-02-01T21:29:12.151Z,10.80
2023-02-01T21:31:40.573Z,10.80
2023-02-01T21:34:08.122Z,10.80
2023-02-01T21:36:35.869Z,10.70
2023-02-01T21:39:04.892Z,10.80
2023-02-01T21:41:52.565Z,10.80
2023-02-01T21:44:20.415Z,10.80
2023-02-01T21:46:47.434Z,10.80
2023-02-01T21:49:14.863Z,10.80
2023-02-01T21:51:42.590Z,10.80
2023-02-01T21:54:11.160Z,10.80
2023-02-01T21:56:38.676Z,10.90
2023-02-01T21:59:05.741Z,10.80
2023-02-01T22:01:33.435Z,10.80
2023-02-01T22:04:00.264Z,10.90
2023-02-01T22:06:29.855Z,10.80
2023-02-01T22:08:56.849Z,10.80
2023-02-01T22:11:24.111Z,10.80
2023-02-01T22:13:51.107Z,10.80
2023-02-01T22:16:21.354Z,10.80
2023-02-01T22:18:50.553Z,10.80
2023-02-01T22:21:18.227Z,10.80
2023-02-01T22:23:45.379Z,10.70
2023-02-01T22:26:13.918Z,10.70
2023-02-01T22:28:40.832Z,10.70
2023-02-01T22:31:09.640Z,10.70
2023-02-01T22:33:38.548Z,10.60
2023-02-01T22:36:06.451Z,10.70
2023-02-01T22:38:34.654Z,10.60
2023-02-01T22:41:04.531Z,10.60
2023-02-01T22:43:32.545Z,10.60
2023-02-01T22:46:04.675Z,10.60
2023-02-01T22:48:34.669Z,10.50
2023-02-01T22:51:02.179Z,10.60
2023-02-01T22:53:31.008Z,10.50
2023-02-01T22:56:05.226Z,10.60
2023-02-01T22:58:32.519Z,10.60
2023-02-01T23:01:13.379Z,10.60
2023-02-01T23:03:40.841Z,10.60
2023-02-01T23:06:08.639Z,10.60
2023-02-01T23:08:35.931Z,10.50
2023-02-01T23:11:08.436Z,10.50
2023-02-01T23:13:36.490Z,10.60
2023-02-01T23:16:11.949Z,10.50
2023-02-01T23:18:39.822Z,10.50
2023-02-01T23:21:17.565Z,10.50
2023-02-01T23:23:49.348Z,10.50
2023-02-01T23:26:16.590Z,10.60
2023-02-01T23:28:44.182Z,10.60
2023-02-01T23:31:13.016Z,10.60
2023-02-01T23:33:40.650Z,10.60
2023-02-01T23:36:10.807Z,10.60
2023-02-01T23:38:37.651Z,10.60
2023-02-01T23:41:06.691Z,10.60
2023-02-01T23:43:52.161Z,10.60
2023-02-01T23:46:19.531Z,10.60
2023-02-01T23:48:48.180Z,10.50
2023-02-01T23:51:16.004Z,10.40
2023-02-01T23:53:44.866Z,10.50
2023-02-01T23:56:33.271Z,10.50
2023-02-01T23:59:05.242Z,10.50
